sensor_id;sensor_type;location;lat;lon;timestamp;pressure;altitude;pressure_sealevel;temperature;humidity
70217;BME280;65567;55.684;37.570;2023-08-01T00:00:57;98574.19;;;23.55;49.07
70217;BME280;65567;55.684;37.570;2023-08-01T00:03:23;98578.75;;;23.47;49.05
70217;BME280;65567;55.684;37.570;2023-08-01T00:05:49;98572.28;;;23.41;49.71
70217;BME280;65567;55.684;37.570;2023-08-01T00:08:17;98573.81;;;23.35;49.84
70217;BME280;65567;55.684;37.570;2023-08-01T00:10:43;98573.50;;;23.30;49.99
70217;BME280;65567;55.684;37.570;2023-08-01T00:13:09;98581.41;;;23.23;50.14
70217;BME280;65567;55.684;37.570;2023-08-01T00:15:35;98577.94;;;23.15;50.15
70217;BME280;65567;55.684;37.570;2023-08-01T00:18:04;98576.25;;;23.14;50.17
70217;BME280;65567;55.684;37.570;2023-08-01T00:20:30;98572.91;;;23.12;50.29
70217;BME280;65567;55.684;37.570;2023-08-01T00:22:55;98561.63;;;23.01;50.11
70217;BME280;65567;55.684;37.570;2023-08-01T00:25:21;98574.47;;;23.06;50.20
70217;BME280;65567;55.684;37.570;2023-08-01T00:27:47;98571.94;;;23.04;50.21
70217;BME280;65567;55.684;37.570;2023-08-01T00:30:13;98576.81;;;23.01;50.28
70217;BME280;65567;55.684;37.570;2023-08-01T00:32:38;98568.13;;;22.99;50.33
70217;BME280;65567;55.684;37.570;2023-08-01T00:35:04;98575.34;;;22.98;50.60
70217;BME280;65567;55.684;37.570;2023-08-01T00:37:30;98572.66;;;22.98;50.52
70217;BME280;65567;55.684;37.570;2023-08-01T00:39:56;98572.00;;;22.96;50.54
70217;BME280;65567;55.684;37.570;2023-08-01T00:42:22;98575.03;;;22.93;51.46
70217;BME280;65567;55.684;37.570;2023-08-01T00:44:48;98569.38;;;22.88;51.82
70217;BME280;65567;55.684;37.570;2023-08-01T00:47:15;98575.72;;;22.87;51.83
70217;BME280;65567;55.684;37.570;2023-08-01T00:49:41;98579.72;;;22.83;51.84
70217;BME280;65567;55.684;37.570;2023-08-01T00:52:08;98581.41;;;22.84;51.84
70217;BME280;65567;55.684;37.570;2023-08-01T00:54:35;98580.06;;;22.80;51.89
70217;BME280;65567;55.684;37.570;2023-08-01T00:57:05;98585.94;;;22.75;52.13
70217;BME280;65567;55.684;37.570;2023-08-01T00:59:32;98586.13;;;22.73;52.01
70217;BME280;65567;55.684;37.570;2023-08-01T01:02:01;98595.13;;;22.72;51.86
70217;BME280;65567;55.684;37.570;2023-08-01T01:04:27;98583.59;;;22.72;51.90
70217;BME280;65567;55.684;37.570;2023-08-01T01:07:03;98582.94;;;22.70;52.00
70217;BME280;65567;55.684;37.570;2023-08-01T01:09:31;98582.97;;;22.61;51.70
70217;BME280;65567;55.684;37.570;2023-08-01T01:11:58;98593.13;;;22.66;51.95
70217;BME280;65567;55.684;37.570;2023-08-01T01:14:25;98572.13;;;22.55;52.31
70217;BME280;65567;55.684;37.570;2023-08-01T01:16:51;98582.13;;;22.61;52.36
70217;BME280;65567;55.684;37.570;2023-08-01T01:19:17;98573.44;;;22.59;52.49
70217;BME280;65567;55.684;37.570;2023-08-01T01:21:44;98582.50;;;22.58;52.48
70217;BME280;65567;55.684;37.570;2023-08-01T01:24:13;98583.50;;;22.57;52.42
70217;BME280;65567;55.684;37.570;2023-08-01T01:26:41;98591.84;;;22.54;52.57
70217;BME280;65567;55.684;37.570;2023-08-01T01:29:07;98583.53;;;22.49;52.53
70217;BME280;65567;55.684;37.570;2023-08-01T01:31:35;98585.88;;;22.43;52.65
70217;BME280;65567;55.684;37.570;2023-08-01T01:34:03;98589.19;;;22.46;52.70
70217;BME280;65567;55.684;37.570;2023-08-01T01:36:29;98587.19;;;22.48;52.60
70217;BME280;65567;55.684;37.570;2023-08-01T01:38:55;98583.34;;;22.42;52.83
70217;BME280;65567;55.684;37.570;2023-08-01T01:41:22;98587.19;;;22.48;53.29
70217;BME280;65567;55.684;37.570;2023-08-01T01:43:48;98588.50;;;22.52;52.99
70217;BME280;65567;55.684;37.570;2023-08-01T01:46:14;98591.16;;;22.52;53.04
70217;BME280;65567;55.684;37.570;2023-08-01T01:48:40;98594.81;;;22.59;52.97
70217;BME280;65567;55.684;37.570;2023-08-01T01:51:07;98589.66;;;22.66;52.41
70217;BME280;65567;55.684;37.570;2023-08-01T01:53:33;98593.44;;;22.71;52.60
70217;BME280;65567;55.684;37.570;2023-08-01T01:55:59;98591.59;;;22.80;52.27
70217;BME280;65567;55.684;37.570;2023-08-01T01:58:25;98593.03;;;22.91;52.33
70217;BME280;65567;55.684;37.570;2023-08-01T02:00:51;98583.66;;;23.03;52.19
70217;BME280;65567;55.684;37.570;2023-08-01T02:03:17;98587.25;;;23.19;51.85
70217;BME280;65567;55.684;37.570;2023-08-01T02:05:44;98595.75;;;23.31;51.50
70217;BME280;65567;55.684;37.570;2023-08-01T02:08:10;98592.44;;;23.52;51.46
70217;BME280;65567;55.684;37.570;2023-08-01T02:10:36;98592.63;;;23.73;50.76
70217;BME280;65567;55.684;37.570;2023-08-01T02:13:02;98594.34;;;23.89;50.38
70217;BME280;65567;55.684;37.570;2023-08-01T02:15:27;98590.34;;;24.08;50.11
70217;BME280;65567;55.684;37.570;2023-08-01T02:17:56;98593.63;;;24.34;49.60
70217;BME280;65567;55.684;37.570;2023-08-01T02:20:22;98584.88;;;24.55;49.52
70217;BME280;65567;55.684;37.570;2023-08-01T02:22:48;98592.03;;;24.78;49.00
70217;BME280;65567;55.684;37.570;2023-08-01T02:25:13;98583.84;;;25.01;48.64
70217;BME280;65567;55.684;37.570;2023-08-01T02:27:39;98587.25;;;25.24;47.69
70217;BME280;65567;55.684;37.570;2023-08-01T02:30:06;98582.59;;;25.48;46.84
70217;BME280;65567;55.684;37.570;2023-08-01T02:32:32;98587.13;;;25.69;45.77
70217;BME280;65567;55.684;37.570;2023-08-01T02:34:58;98590.41;;;25.93;46.11
70217;BME280;65567;55.684;37.570;2023-08-01T02:37:24;98587.34;;;26.18;45.42
70217;BME280;65567;55.684;37.570;2023-08-01T02:39:50;98588.19;;;26.47;45.35
70217;BME280;65567;55.684;37.570;2023-08-01T02:42:16;98585.03;;;26.71;44.34
70217;BME280;65567;55.684;37.570;2023-08-01T02:44:41;98583.13;;;27.00;44.29
70217;BME280;65567;55.684;37.570;2023-08-01T02:47:07;98591.91;;;27.29;43.53
70217;BME280;65567;55.684;37.570;2023-08-01T02:49:36;98589.53;;;27.55;43.11
70217;BME280;65567;55.684;37.570;2023-08-01T02:52:02;98592.88;;;27.77;42.68
70217;BME280;65567;55.684;37.570;2023-08-01T02:54:28;98595.41;;;28.05;42.19
70217;BME280;65567;55.684;37.570;2023-08-01T02:56:53;98599.53;;;28.34;41.44
70217;BME280;65567;55.684;37.570;2023-08-01T02:59:19;98595.56;;;28.64;41.36
70217;BME280;65567;55.684;37.570;2023-08-01T03:01:45;98596.34;;;28.91;40.60
70217;BME280;65567;55.684;37.570;2023-08-01T03:04:11;98589.19;;;29.10;39.23
70217;BME280;65567;55.684;37.570;2023-08-01T03:06:37;98593.50;;;29.31;38.92
70217;BME280;65567;55.684;37.570;2023-08-01T03:09:03;98591.06;;;29.55;38.62
70217;BME280;65567;55.684;37.570;2023-08-01T03:11:35;98591.94;;;29.81;38.24
70217;BME280;65567;55.684;37.570;2023-08-01T03:14:00;98600.91;;;30.07;37.42
70217;BME280;65567;55.684;37.570;2023-08-01T03:16:26;98597.81;;;30.28;37.35
70217;BME280;65567;55.684;37.570;2023-08-01T03:18:52;98601.34;;;30.54;37.11
70217;BME280;65567;55.684;37.570;2023-08-01T03:21:18;98608.09;;;30.82;36.10
70217;BME280;65567;55.684;37.570;2023-08-01T03:23:44;98601.13;;;31.11;35.16
70217;BME280;65567;55.684;37.570;2023-08-01T03:26:11;98597.84;;;31.40;34.39
70217;BME280;65567;55.684;37.570;2023-08-01T03:28:37;98601.38;;;31.71;34.18
70217;BME280;65567;55.684;37.570;2023-08-01T03:31:03;98605.81;;;31.95;33.56
70217;BME280;65567;55.684;37.570;2023-08-01T03:33:29;98609.28;;;32.26;33.09
70217;BME280;65567;55.684;37.570;2023-08-01T03:35:56;98606.69;;;32.55;33.18
70217;BME280;65567;55.684;37.570;2023-08-01T03:38:21;98611.75;;;32.87;32.43
70217;BME280;65567;55.684;37.570;2023-08-01T03:40:47;98602.09;;;33.20;31.62
70217;BME280;65567;55.684;37.570;2023-08-01T03:43:13;98607.06;;;33.52;31.04
70217;BME280;65567;55.684;37.570;2023-08-01T03:45:39;98606.47;;;33.79;30.84
70217;BME280;65567;55.684;37.570;2023-08-01T03:48:05;98606.84;;;34.00;30.20
70217;BME280;65567;55.684;37.570;2023-08-01T03:50:31;98611.25;;;34.23;29.72
70217;BME280;65567;55.684;37.570;2023-08-01T03:52:57;98614.41;;;34.49;29.32
70217;BME280;65567;55.684;37.570;2023-08-01T03:55:22;98609.81;;;34.71;29.21
70217;BME280;65567;55.684;37.570;2023-08-01T03:57:48;98608.72;;;34.89;29.31
70217;BME280;65567;55.684;37.570;2023-08-01T04:00:14;98615.50;;;34.87;28.76
70217;BME280;65567;55.684;37.570;2023-08-01T04:02:40;98625.06;;;34.89;28.70
70217;BME280;65567;55.684;37.570;2023-08-01T04:05:07;98626.50;;;34.97;28.65
70217;BME280;65567;55.684;37.570;2023-08-01T04:07:35;98619.84;;;35.10;28.28
70217;BME280;65567;55.684;37.570;2023-08-01T04:10:02;98626.06;;;35.28;28.19
70217;BME280;65567;55.684;37.570;2023-08-01T04:12:29;98630.38;;;35.46;27.84
70217;BME280;65567;55.684;37.570;2023-08-01T04:14:54;98631.06;;;35.63;27.97
70217;BME280;65567;55.684;37.570;2023-08-01T04:17:20;98630.88;;;35.70;27.49
70217;BME280;65567;55.684;37.570;2023-08-01T04:19:46;98621.97;;;35.80;27.28
70217;BME280;65567;55.684;37.570;2023-08-01T04:22:12;98625.19;;;35.99;27.20
70217;BME280;65567;55.684;37.570;2023-08-01T04:24:39;98631.34;;;36.21;26.73
70217;BME280;65567;55.684;37.570;2023-08-01T04:27:05;98627.69;;;36.38;26.59
70217;BME280;65567;55.684;37.570;2023-08-01T04:29:32;98632.66;;;36.51;26.49
70217;BME280;65567;55.684;37.570;2023-08-01T04:31:57;98634.94;;;36.65;26.12
70217;BME280;65567;55.684;37.570;2023-08-01T04:34:23;98630.91;;;36.78;25.97
70217;BME280;65567;55.684;37.570;2023-08-01T04:36:49;98637.81;;;36.91;25.93
70217;BME280;65567;55.684;37.570;2023-08-01T04:39:15;98627.91;;;36.79;25.80
70217;BME280;65567;55.684;37.570;2023-08-01T04:41:40;98630.56;;;36.64;26.17
70217;BME280;65567;55.684;37.570;2023-08-01T04:44:06;98629.97;;;36.57;25.97
70217;BME280;65567;55.684;37.570;2023-08-01T04:46:32;98627.78;;;36.53;26.61
70217;BME280;65567;55.684;37.570;2023-08-01T04:48:58;98635.44;;;36.57;26.41
70217;BME280;65567;55.684;37.570;2023-08-01T04:51:24;98630.59;;;36.74;26.38
70217;BME280;65567;55.684;37.570;2023-08-01T04:53:51;98635.66;;;36.93;25.67
70217;BME280;65567;55.684;37.570;2023-08-01T04:56:17;98630.19;;;36.93;25.41
70217;BME280;65567;55.684;37.570;2023-08-01T04:58:43;98637.28;;;36.89;25.43
70217;BME280;65567;55.684;37.570;2023-08-01T05:01:08;98635.47;;;36.62;25.94
70217;BME280;65567;55.684;37.570;2023-08-01T05:03:34;98628.44;;;36.76;25.88
70217;BME280;65567;55.684;37.570;2023-08-01T05:06:00;98625.28;;;36.95;25.17
70217;BME280;65567;55.684;37.570;2023-08-01T05:08:26;98623.13;;;36.97;25.02
70217;BME280;65567;55.684;37.570;2023-08-01T05:10:52;98627.56;;;37.13;25.11
70217;BME280;65567;55.684;37.570;2023-08-01T05:13:18;98634.47;;;37.42;25.17
70217;BME280;65567;55.684;37.570;2023-08-01T05:15:45;98636.16;;;37.63;24.44
70217;BME280;65567;55.684;37.570;2023-08-01T05:18:15;98638.09;;;37.58;24.57
70217;BME280;65567;55.684;37.570;2023-08-01T05:20:41;98635.13;;;37.80;24.54
70217;BME280;65567;55.684;37.570;2023-08-01T05:23:07;98633.78;;;38.03;24.09
70217;BME280;65567;55.684;37.570;2023-08-01T05:25:33;98633.50;;;38.25;23.92
70217;BME280;65567;55.684;37.570;2023-08-01T05:27:59;98633.22;;;38.47;23.81
70217;BME280;65567;55.684;37.570;2023-08-01T05:30:25;98635.63;;;38.70;23.22
70217;BME280;65567;55.684;37.570;2023-08-01T05:32:50;98637.25;;;38.81;23.19
70217;BME280;65567;55.684;37.570;2023-08-01T05:35:17;98638.56;;;38.94;22.38
70217;BME280;65567;55.684;37.570;2023-08-01T05:37:42;98640.78;;;38.97;22.69
70217;BME280;65567;55.684;37.570;2023-08-01T05:40:09;98645.19;;;38.88;22.49
70217;BME280;65567;55.684;37.570;2023-08-01T05:42:35;98641.41;;;38.63;22.94
70217;BME280;65567;55.684;37.570;2023-08-01T05:45:00;98642.50;;;38.72;23.21
70217;BME280;65567;55.684;37.570;2023-08-01T05:47:26;98641.91;;;38.80;22.85
70217;BME280;65567;55.684;37.570;2023-08-01T05:49:52;98643.00;;;38.84;22.62
70217;BME280;65567;55.684;37.570;2023-08-01T05:52:18;98640.00;;;38.76;22.95
70217;BME280;65567;55.684;37.570;2023-08-01T05:54:44;98647.41;;;38.75;22.08
70217;BME280;65567;55.684;37.570;2023-08-01T05:57:10;98654.00;;;38.43;23.06
70217;BME280;65567;55.684;37.570;2023-08-01T05:59:36;98656.22;;;38.41;22.95
70217;BME280;65567;55.684;37.570;2023-08-01T06:02:03;98651.25;;;38.48;23.27
70217;BME280;65567;55.684;37.570;2023-08-01T06:04:29;98657.56;;;38.49;22.67
70217;BME280;65567;55.684;37.570;2023-08-01T06:06:54;98652.84;;;38.70;22.28
70217;BME280;65567;55.684;37.570;2023-08-01T06:09:21;98649.88;;;38.51;22.42
70217;BME280;65567;55.684;37.570;2023-08-01T06:11:47;98652.66;;;38.15;23.02
70217;BME280;65567;55.684;37.570;2023-08-01T06:14:13;98655.38;;;37.89;22.95
70217;BME280;65567;55.684;37.570;2023-08-01T06:16:38;98658.34;;;37.77;23.02
70217;BME280;65567;55.684;37.570;2023-08-01T06:19:04;98661.34;;;37.76;23.36
70217;BME280;65567;55.684;37.570;2023-08-01T06:21:30;98656.88;;;37.39;23.58
70217;BME280;65567;55.684;37.570;2023-08-01T06:23:55;98652.06;;;36.55;24.31
70217;BME280;65567;55.684;37.570;2023-08-01T06:26:21;98646.00;;;36.15;25.19
70217;BME280;65567;55.684;37.570;2023-08-01T06:28:47;98650.56;;;36.04;25.29
70217;BME280;65567;55.684;37.570;2023-08-01T06:31:12;98652.41;;;36.26;25.73
70217;BME280;65567;55.684;37.570;2023-08-01T06:33:38;98656.53;;;36.77;25.41
70217;BME280;65567;55.684;37.570;2023-08-01T06:36:05;98653.78;;;37.19;24.03
70217;BME280;65567;55.684;37.570;2023-08-01T06:38:31;98657.72;;;37.55;23.46
70217;BME280;65567;55.684;37.570;2023-08-01T06:40:57;98659.19;;;37.83;23.16
70217;BME280;65567;55.684;37.570;2023-08-01T06:43:23;98657.03;;;37.90;23.60
70217;BME280;65567;55.684;37.570;2023-08-01T06:45:51;98655.38;;;37.94;22.79
70217;BME280;65567;55.684;37.570;2023-08-01T06:48:17;98661.63;;;37.79;22.10
70217;BME280;65567;55.684;37.570;2023-08-01T06:50:43;98653.97;;;37.76;22.49
70217;BME280;65567;55.684;37.570;2023-08-01T06:53:08;98661.03;;;37.62;22.62
70217;BME280;65567;55.684;37.570;2023-08-01T06:55:34;98657.22;;;37.63;23.46
70217;BME280;65567;55.684;37.570;2023-08-01T06:58:00;98661.75;;;37.31;23.49
70217;BME280;65567;55.684;37.570;2023-08-01T07:00:25;98657.19;;;37.42;23.57
70217;BME280;65567;55.684;37.570;2023-08-01T07:02:51;98658.84;;;37.64;23.52
70217;BME280;65567;55.684;37.570;2023-08-01T07:05:17;98654.47;;;37.58;23.03
70217;BME280;65567;55.684;37.570;2023-08-01T07:07:43;98653.38;;;37.48;22.99
70217;BME280;65567;55.684;37.570;2023-08-01T07:10:09;98657.19;;;37.52;22.69
70217;BME280;65567;55.684;37.570;2023-08-01T07:12:35;98652.84;;;37.67;23.10
70217;BME280;65567;55.684;37.570;2023-08-01T07:15:01;98645.25;;;37.95;22.63
70217;BME280;65567;55.684;37.570;2023-08-01T07:17:30;98646.09;;;38.11;22.15
70217;BME280;65567;55.684;37.570;2023-08-01T07:19:55;98647.19;;;38.25;22.32
70217;BME280;65567;55.684;37.570;2023-08-01T07:22:21;98655.63;;;38.18;22.64
70217;BME280;65567;55.684;37.570;2023-08-01T07:24:47;98662.47;;;37.85;22.60
70217;BME280;65567;55.684;37.570;2023-08-01T07:27:12;98654.28;;;38.06;22.17
70217;BME280;65567;55.684;37.570;2023-08-01T07:29:38;98649.06;;;38.09;22.16
70217;BME280;65567;55.684;37.570;2023-08-01T07:32:04;98660.00;;;38.19;22.28
70217;BME280;65567;55.684;37.570;2023-08-01T07:34:30;98663.06;;;38.33;21.92
70217;BME280;65567;55.684;37.570;2023-08-01T07:36:56;98659.75;;;37.85;22.51
70217;BME280;65567;55.684;37.570;2023-08-01T07:39:21;98664.31;;;37.53;22.76
70217;BME280;65567;55.684;37.570;2023-08-01T07:41:47;98658.44;;;37.24;22.54
70217;BME280;65567;55.684;37.570;2023-08-01T07:44:13;98657.19;;;37.52;22.48
70217;BME280;65567;55.684;37.570;2023-08-01T07:46:39;98665.44;;;37.68;22.36
70217;BME280;65567;55.684;37.570;2023-08-01T07:49:05;98658.84;;;37.64;22.02
70217;BME280;65567;55.684;37.570;2023-08-01T07:51:30;98656.47;;;37.14;22.35
70217;BME280;65567;55.684;37.570;2023-08-01T07:53:56;98656.22;;;36.63;22.50
70217;BME280;65567;55.684;37.570;2023-08-01T07:56:22;98660.81;;;36.25;23.31
70217;BME280;65567;55.684;37.570;2023-08-01T07:58:48;98650.69;;;36.52;23.63
70217;BME280;65567;55.684;37.570;2023-08-01T08:01:14;98656.78;;;36.70;23.53
70217;BME280;65567;55.684;37.570;2023-08-01T08:03:42;98655.91;;;37.02;23.22
70217;BME280;65567;55.684;37.570;2023-08-01T08:06:08;98649.91;;;37.10;23.33
70217;BME280;65567;55.684;37.570;2023-08-01T08:08:35;98659.81;;;37.27;23.09
70217;BME280;65567;55.684;37.570;2023-08-01T08:11:02;98652.16;;;37.29;22.79
70217;BME280;65567;55.684;37.570;2023-08-01T08:13:28;98648.03;;;37.16;22.62
70217;BME280;65567;55.684;37.570;2023-08-01T08:15:57;98646.09;;;37.11;22.79
70217;BME280;65567;55.684;37.570;2023-08-01T08:18:24;98648.31;;;37.19;22.62
70217;BME280;65567;55.684;37.570;2023-08-01T08:20:50;98643.63;;;37.04;23.01
70217;BME280;65567;55.684;37.570;2023-08-01T08:23:16;98650.00;;;37.31;22.78
70217;BME280;65567;55.684;37.570;2023-08-01T08:25:43;98649.03;;;37.73;22.21
70217;BME280;65567;55.684;37.570;2023-08-01T08:28:26;98648.25;;;37.88;21.75
70217;BME280;65567;55.684;37.570;2023-08-01T08:30:52;98654.00;;;37.92;21.87
70217;BME280;65567;55.684;37.570;2023-08-01T08:33:20;98658.91;;;37.84;21.93
70217;BME280;65567;55.684;37.570;2023-08-01T08:35:47;98654.22;;;37.69;22.30
70217;BME280;65567;55.684;37.570;2023-08-01T08:38:13;98653.66;;;37.62;22.56
70217;BME280;65567;55.684;37.570;2023-08-01T08:40:41;98650.13;;;37.62;22.32
70217;BME280;65567;55.684;37.570;2023-08-01T08:43:12;98650.63;;;37.48;22.57
70217;BME280;65567;55.684;37.570;2023-08-01T08:45:41;98643.81;;;37.51;22.72
70217;BME280;65567;55.684;37.570;2023-08-01T08:48:13;98644.94;;;37.65;22.44
70217;BME280;65567;55.684;37.570;2023-08-01T08:50:43;98650.63;;;37.43;22.61
70217;BME280;65567;55.684;37.570;2023-08-01T08:53:11;98643.50;;;37.37;22.89
70217;BME280;65567;55.684;37.570;2023-08-01T08:55:41;98646.47;;;37.30;22.60
70217;BME280;65567;55.684;37.570;2023-08-01T08:58:08;98635.47;;;37.15;23.05
70217;BME280;65567;55.684;37.570;2023-08-01T09:00:39;98635.72;;;37.08;23.00
70217;BME280;65567;55.684;37.570;2023-08-01T09:03:05;98643.34;;;37.06;22.93
70217;BME280;65567;55.684;37.570;2023-08-01T09:05:34;98639.38;;;36.81;22.92
70217;BME280;65567;55.684;37.570;2023-08-01T09:08:21;98636.44;;;36.45;23.83
70217;BME280;65567;55.684;37.570;2023-08-01T09:10:47;98634.69;;;36.29;23.49
70217;BME280;65567;55.684;37.570;2023-08-01T09:13:14;98637.47;;;36.01;24.56
70217;BME280;65567;55.684;37.570;2023-08-01T09:15:41;98638.63;;;36.11;24.23
70217;BME280;65567;55.684;37.570;2023-08-01T09:18:09;98645.31;;;36.30;23.92
70217;BME280;65567;55.684;37.570;2023-08-01T09:20:46;98634.31;;;36.15;23.98
70217;BME280;65567;55.684;37.570;2023-08-01T09:23:13;98639.78;;;35.87;24.59
70217;BME280;65567;55.684;37.570;2023-08-01T09:25:39;98634.22;;;36.04;24.64
70217;BME280;65567;55.684;37.570;2023-08-01T09:28:20;98631.03;;;36.50;23.56
70217;BME280;65567;55.684;37.570;2023-08-01T09:30:48;98645.38;;;36.78;23.43
70217;BME280;65567;55.684;37.570;2023-08-01T09:33:15;98643.84;;;36.93;23.89
70217;BME280;65567;55.684;37.570;2023-08-01T09:35:41;98651.91;;;36.72;23.52
70217;BME280;65567;55.684;37.570;2023-08-01T09:38:08;98622.41;;;36.26;24.18
70217;BME280;65567;55.684;37.570;2023-08-01T09:40:38;98623.44;;;35.87;24.26
70217;BME280;65567;55.684;37.570;2023-08-01T09:43:04;98634.88;;;35.89;24.59
70217;BME280;65567;55.684;37.570;2023-08-01T09:45:30;98625.09;;;35.88;24.05
70217;BME280;65567;55.684;37.570;2023-08-01T09:47:56;98621.31;;;35.40;25.19
70217;BME280;65567;55.684;37.570;2023-08-01T09:50:23;98627.06;;;35.21;25.66
70217;BME280;65567;55.684;37.570;2023-08-01T09:52:49;98617.44;;;35.36;25.54
70217;BME280;65567;55.684;37.570;2023-08-01T09:55:26;98614.69;;;35.58;25.34
70217;BME280;65567;55.684;37.570;2023-08-01T09:57:57;98618.59;;;35.95;25.29
70217;BME280;65567;55.684;37.570;2023-08-01T10:00:26;98615.41;;;36.03;24.85
70217;BME280;65567;55.684;37.570;2023-08-01T10:02:52;98622.19;;;35.73;24.78
70217;BME280;65567;55.684;37.570;2023-08-01T10:05:19;98625.19;;;35.44;25.15
70217;BME280;65567;55.684;37.570;2023-08-01T10:07:47;98624.19;;;35.33;25.66
70217;BME280;65567;55.684;37.570;2023-08-01T10:10:15;98624.09;;;35.45;25.75
70217;BME280;65567;55.684;37.570;2023-08-01T10:12:45;98636.69;;;35.51;25.23
70217;BME280;65567;55.684;37.570;2023-08-01T10:15:15;98614.53;;;35.20;25.05
70217;BME280;65567;55.684;37.570;2023-08-01T10:17:41;98615.44;;;35.04;25.59
70217;BME280;65567;55.684;37.570;2023-08-01T10:20:07;98611.59;;;35.27;25.42
70217;BME280;65567;55.684;37.570;2023-08-01T10:22:33;98608.41;;;35.58;25.25
70217;BME280;65567;55.684;37.570;2023-08-01T10:25:00;98611.50;;;35.94;25.04
70217;BME280;65567;55.684;37.570;2023-08-01T10:27:26;98611.13;;;36.17;24.77
70217;BME280;65567;55.684;37.570;2023-08-01T10:30:00;98608.38;;;36.12;25.00
70217;BME280;65567;55.684;37.570;2023-08-01T10:32:39;98609.03;;;36.30;24.70
70217;BME280;65567;55.684;37.570;2023-08-01T10:35:06;98601.88;;;36.18;24.63
70217;BME280;65567;55.684;37.570;2023-08-01T10:37:45;98605.00;;;36.00;25.04
70217;BME280;65567;55.684;37.570;2023-08-01T10:40:21;98598.72;;;35.99;24.82
70217;BME280;65567;55.684;37.570;2023-08-01T10:42:57;98596.84;;;36.05;24.19
70217;BME280;65567;55.684;37.570;2023-08-01T10:45:24;98587.31;;;35.75;24.03
70217;BME280;65567;55.684;37.570;2023-08-01T10:47:50;98591.34;;;35.67;24.82
70217;BME280;65567;55.684;37.570;2023-08-01T10:50:17;98591.34;;;35.67;25.08
70217;BME280;65567;55.684;37.570;2023-08-01T10:52:44;98592.06;;;35.58;24.26
70217;BME280;65567;55.684;37.570;2023-08-01T10:55:10;98594.59;;;35.15;24.72
70217;BME280;65567;55.684;37.570;2023-08-01T10:57:39;98594.44;;;34.82;25.56
70217;BME280;65567;55.684;37.570;2023-08-01T11:00:06;98589.28;;;34.41;26.26
70217;BME280;65567;55.684;37.570;2023-08-01T11:02:37;98597.88;;;33.70;27.46
70217;BME280;65567;55.684;37.570;2023-08-01T11:05:05;98592.75;;;33.40;27.45
70217;BME280;65567;55.684;37.570;2023-08-01T11:07:32;98586.81;;;33.43;26.98
70217;BME280;65567;55.684;37.570;2023-08-01T11:10:10;98585.75;;;33.44;26.72
70217;BME280;65567;55.684;37.570;2023-08-01T11:12:38;98583.44;;;33.24;27.73
70217;BME280;65567;55.684;37.570;2023-08-01T11:15:06;98590.25;;;32.98;27.95
70217;BME280;65567;55.684;37.570;2023-08-01T11:17:37;98599.09;;;32.93;28.34
70217;BME280;65567;55.684;37.570;2023-08-01T11:20:10;98597.19;;;33.05;28.32
70217;BME280;65567;55.684;37.570;2023-08-01T11:22:36;98589.50;;;33.14;27.63
70217;BME280;65567;55.684;37.570;2023-08-01T11:25:03;98588.03;;;33.23;28.02
70217;BME280;65567;55.684;37.570;2023-08-01T11:27:29;98592.63;;;33.23;27.21
70217;BME280;65567;55.684;37.570;2023-08-01T11:29:55;98600.22;;;32.80;27.87
70217;BME280;65567;55.684;37.570;2023-08-01T11:32:33;98591.72;;;32.53;28.59
70217;BME280;65567;55.684;37.570;2023-08-01T11:34:59;98588.28;;;32.57;28.89
70217;BME280;65567;55.684;37.570;2023-08-01T11:37:26;98580.88;;;32.65;28.50
70217;BME280;65567;55.684;37.570;2023-08-01T11:39:52;98577.31;;;32.64;28.66
70217;BME280;65567;55.684;37.570;2023-08-01T11:42:18;98576.75;;;32.74;28.75
70217;BME280;65567;55.684;37.570;2023-08-01T11:44:44;98573.66;;;32.82;28.58
70217;BME280;65567;55.684;37.570;2023-08-01T11:47:14;98578.84;;;32.72;28.17
70217;BME280;65567;55.684;37.570;2023-08-01T11:49:48;98584.53;;;32.47;28.61
70217;BME280;65567;55.684;37.570;2023-08-01T11:52:27;98580.53;;;32.49;28.83
70217;BME280;65567;55.684;37.570;2023-08-01T11:54:54;98576.75;;;32.50;28.67
70217;BME280;65567;55.684;37.570;2023-08-01T11:57:23;98574.28;;;32.37;28.92
70217;BME280;65567;55.684;37.570;2023-08-01T11:59:53;98576.75;;;32.38;29.08
70217;BME280;65567;55.684;37.570;2023-08-01T12:02:24;98571.94;;;32.28;28.54
70217;BME280;65567;55.684;37.570;2023-08-01T12:04:50;98565.75;;;32.09;29.24
70217;BME280;65567;55.684;37.570;2023-08-01T12:07:19;98574.00;;;32.03;28.91
70217;BME280;65567;55.684;37.570;2023-08-01T12:10:05;98563.53;;;31.94;28.60
70217;BME280;65567;55.684;37.570;2023-08-01T12:12:31;98565.50;;;31.87;29.35
70217;BME280;65567;55.684;37.570;2023-08-01T12:14:57;98556.81;;;31.97;29.56
70217;BME280;65567;55.684;37.570;2023-08-01T12:17:23;98551.41;;;32.09;29.79
70217;BME280;65567;55.684;37.570;2023-08-01T12:19:49;98558.34;;;31.93;30.07
70217;BME280;65567;55.684;37.570;2023-08-01T12:22:14;98549.59;;;31.67;30.59
70217;BME280;65567;55.684;37.570;2023-08-01T12:24:41;98546.81;;;31.55;30.79
70217;BME280;65567;55.684;37.570;2023-08-01T12:27:07;98547.94;;;31.66;29.85
70217;BME280;65567;55.684;37.570;2023-08-01T12:29:34;98549.41;;;31.50;31.09
70217;BME280;65567;55.684;37.570;2023-08-01T12:32:02;98542.78;;;31.46;30.89
70217;BME280;65567;55.684;37.570;2023-08-01T12:34:30;98535.91;;;31.31;30.91
70217;BME280;65567;55.684;37.570;2023-08-01T12:36:56;98548.41;;;31.33;31.28
70217;BME280;65567;55.684;37.570;2023-08-01T12:39:22;98545.56;;;31.27;30.47
70217;BME280;65567;55.684;37.570;2023-08-01T12:41:52;98547.59;;;31.13;31.40
70217;BME280;65567;55.684;37.570;2023-08-01T12:44:20;98551.44;;;31.24;31.34
70217;BME280;65567;55.684;37.570;2023-08-01T12:46:46;98545.81;;;31.38;30.82
70217;BME280;65567;55.684;37.570;2023-08-01T12:49:12;98545.34;;;31.41;31.35